createdAt,value
2023-02-28T00:00:44.584Z,57.09
2023-02-28T00:03:20.978Z,58.10
2023-02-28T00:05:52.192Z,58.82
2023-02-28T00:08:23.284Z,59.09
2023-02-28T00:10:54.176Z,60.56
2023-02-28T00:13:25.323Z,60.71
2023-02-28T00:16:03.135Z,60.90
2023-02-28T00:18:34.212Z,61.04
2023-02-28T00:21:05.431Z,61.53
2023-02-28T00:23:36.819Z,61.50
2023-02-28T00:26:08.001Z,61.55
2023-02-28T00:28:39.145Z,61.72
2023-02-28T00:31:10.243Z,61.80
2023-02-28T00:33:41.216Z,61.77
2023-02-28T00:36:13.591Z,61.87
2023-02-28T00:38:44.652Z,62.31
2023-02-28T00:41:15.888Z,62.23
2023-02-28T00:43:46.920Z,62.22
2023-02-28T00:46:17.933Z,62.70
2023-02-28T00:48:48.854Z,66.43
2023-02-28T00:51:19.830Z,66.52
2023-02-28T00:53:51.287Z,62.08
2023-02-28T00:56:22.369Z,55.76
2023-02-28T00:58:53.061Z,53.06
2023-02-28T01:01:23.909Z,53.65
2023-02-28T01:03:54.768Z,54.36
2023-02-28T01:06:25.717Z,55.49
2023-02-28T01:08:56.597Z,55.78
2023-02-28T01:11:27.748Z,56.24
2023-02-28T01:13:58.988Z,57.05
2023-02-28T01:16:29.677Z,57.73
2023-02-28T01:19:00.662Z,58.24
2023-02-28T01:21:31.782Z,58.83
2023-02-28T01:24:03.158Z,59.40
2023-02-28T01:26:33.951Z,60.01
2023-02-28T01:29:05.030Z,60.70
2023-02-28T01:31:36.284Z,61.22
2023-02-28T01:34:07.107Z,61.83
2023-02-28T01:36:39.077Z,64.82
2023-02-28T01:39:10.120Z,69.59
2023-02-28T01:41:41.248Z,67.50
2023-02-28T01:44:25.505Z,64.71
2023-02-28T01:46:56.536Z,62.09
2023-02-28T01:49:27.432Z,56.68
2023-02-28T01:51:58.838Z,53.44
2023-02-28T01:54:32.329Z,53.68
2023-02-28T01:57:04.306Z,54.49
2023-02-28T01:59:38.850Z,56.46
2023-02-28T02:02:10.714Z,58.15
2023-02-28T02:04:43.309Z,59.28
2023-02-28T02:07:15.274Z,61.23
2023-02-28T02:09:48.910Z,62.22
2023-02-28T02:12:25.811Z,63.94
2023-02-28T02:15:03.278Z,65.42
2023-02-28T02:17:37.079Z,63.86
2023-02-28T02:20:21.535Z,57.70
2023-02-28T02:23:10.517Z,54.00
2023-02-28T02:25:42.782Z,53.89
2023-02-28T02:28:21.185Z,56.28
2023-02-28T02:31:15.396Z,57.73
2023-02-28T02:33:52.555Z,59.02
2023-02-28T02:36:25.633Z,60.54
2023-02-28T02:39:01.492Z,61.04
2023-02-28T02:41:36.832Z,63.20
2023-02-28T02:44:14.496Z,64.72
2023-02-28T02:46:46.658Z,61.77
2023-02-28T02:49:18.901Z,59.72
2023-02-28T02:51:50.096Z,54.60
2023-02-28T02:54:23.300Z,52.36
2023-02-28T02:56:52.487Z,53.47
2023-02-28T02:59:25.181Z,53.65
2023-02-28T03:01:58.055Z,54.96
2023-02-28T03:04:30.979Z,56.82
2023-02-28T03:07:03.201Z,57.53
2023-02-28T03:09:36.883Z,57.82
2023-02-28T03:12:09.190Z,60.18
2023-02-28T03:14:47.404Z,60.55
2023-02-28T03:17:33.100Z,61.18
2023-02-28T03:20:08.420Z,63.96
2023-02-28T03:22:50.757Z,66.88
2023-02-28T03:25:23.504Z,64.94
2023-02-28T03:27:58.177Z,60.04
2023-02-28T03:30:32.034Z,55.33
2023-02-28T03:33:07.191Z,53.90
2023-02-28T03:35:39.507Z,55.68
2023-02-28T03:38:15.024Z,56.63
2023-02-28T03:40:49.142Z,57.48
2023-02-28T03:43:25.009Z,59.51
2023-02-28T03:45:57.389Z,60.01
2023-02-28T03:48:29.870Z,60.80
2023-02-28T03:51:01.609Z,63.43
2023-02-28T03:53:34.169Z,63.74
2023-02-28T03:56:08.711Z,63.06
2023-02-28T03:58:41.645Z,61.88
2023-02-28T04:01:15.140Z,57.79
2023-02-28T04:03:46.182Z,54.18
2023-02-28T04:06:19.070Z,55.27
2023-02-28T04:08:50.187Z,56.99
2023-02-28T04:11:23.362Z,58.65
2023-02-28T04:13:54.220Z,60.21
2023-02-28T04:16:34.896Z,59.97
2023-02-28T04:19:07.945Z,60.71
2023-02-28T04:21:40.557Z,63.58
2023-02-28T04:24:15.416Z,67.48
2023-02-28T04:26:47.025Z,64.80
2023-02-28T04:29:21.051Z,60.59
2023-02-28T04:31:52.469Z,56.39
2023-02-28T04:34:24.799Z,55.07
2023-02-28T04:37:12.038Z,55.06
2023-02-28T04:39:44.540Z,56.25
2023-02-28T04:42:15.912Z,57.48
2023-02-28T04:44:46.653Z,59.15
2023-02-28T04:47:17.497Z,59.82
2023-02-28T04:49:48.420Z,60.33
2023-02-28T04:52:19.505Z,61.21
2023-02-28T04:54:50.492Z,64.66
2023-02-28T04:57:21.226Z,69.66
2023-02-28T04:59:52.065Z,67.08
2023-02-28T05:02:23.070Z,62.94
2023-02-28T05:04:54.247Z,60.19
2023-02-28T05:07:25.284Z,55.80
2023-02-28T05:09:56.334Z,54.81
2023-02-28T05:12:27.262Z,55.47
2023-02-28T05:14:58.206Z,56.89
2023-02-28T05:17:29.043Z,58.35
2023-02-28T05:20:09.966Z,61.14
2023-02-28T05:22:46.370Z,64.92
2023-02-28T05:25:19.380Z,64.02
2023-02-28T05:27:50.454Z,64.40
2023-02-28T05:30:21.469Z,62.55
2023-02-28T05:32:54.227Z,58.25
2023-02-28T05:35:25.680Z,54.81
2023-02-28T05:37:56.816Z,55.37
2023-02-28T05:40:27.964Z,57.35
2023-02-28T05:42:59.114Z,58.01
2023-02-28T05:45:29.959Z,59.49
2023-02-28T05:48:01.082Z,60.35
2023-02-28T05:50:32.017Z,61.45
2023-02-28T05:53:02.855Z,64.47
2023-02-28T05:55:33.797Z,68.37
2023-02-28T05:58:04.945Z,67.04
2023-02-28T06:00:35.882Z,63.03
2023-02-28T06:03:07.085Z,60.77
2023-02-28T06:05:39.730Z,56.89
2023-02-28T06:08:10.571Z,55.80
2023-02-28T06:10:41.335Z,57.34
2023-02-28T06:13:13.567Z,59.41
2023-02-28T06:15:44.370Z,61.84
2023-02-28T06:18:15.414Z,65.56
2023-02-28T06:20:46.012Z,64.90
2023-02-28T06:23:17.256Z,62.77
2023-02-28T06:25:48.892Z,58.63
2023-02-28T06:28:19.931Z,55.76
2023-02-28T06:30:50.696Z,57.74
2023-02-28T06:33:21.864Z,59.62
2023-02-28T06:35:53.994Z,63.39
2023-02-28T06:38:25.478Z,64.97
2023-02-28T06:40:59.708Z,63.28
2023-02-28T06:43:36.525Z,58.61
2023-02-28T06:46:14.842Z,56.74
2023-02-28T06:48:46.989Z,59.07
2023-02-28T06:51:18.720Z,60.98
2023-02-28T06:53:49.687Z,64.08
2023-02-28T06:56:21.532Z,63.16
2023-02-28T06:58:54.021Z,59.96
2023-02-28T07:01:25.699Z,57.61
2023-02-28T07:04:01.940Z,57.14
2023-02-28T07:06:33.614Z,57.73
2023-02-28T07:09:05.500Z,60.66
2023-02-28T07:11:36.546Z,63.69
2023-02-28T07:14:07.486Z,64.05
2023-02-28T07:16:38.826Z,60.57
2023-02-28T07:19:09.456Z,57.75
2023-02-28T07:21:40.603Z,59.38
2023-02-28T07:24:11.846Z,60.44
2023-02-28T07:26:47.706Z,60.73
2023-02-28T07:29:18.495Z,63.89
2023-02-28T07:31:49.338Z,64.64
2023-02-28T07:34:20.157Z,62.62
2023-02-28T07:36:54.939Z,57.39
2023-02-28T07:39:25.834Z,57.45
2023-02-28T07:41:57.433Z,59.91
2023-02-28T07:44:34.015Z,61.69
2023-02-28T07:47:05.406Z,63.84
2023-02-28T07:49:40.292Z,62.99
2023-02-28T07:52:12.352Z,59.23
2023-02-28T07:54:43.076Z,57.73
2023-02-28T07:57:14.638Z,58.46
2023-02-28T07:59:46.183Z,61.36
2023-02-28T08:02:18.366Z,62.66
2023-02-28T08:04:49.708Z,62.46
2023-02-28T08:07:21.247Z,57.37
2023-02-28T08:09:51.781Z,56.59
2023-02-28T08:12:23.098Z,58.19
2023-02-28T08:14:53.704Z,60.17
2023-02-28T08:17:24.499Z,60.79
2023-02-28T08:19:55.119Z,61.54
2023-02-28T08:22:26.094Z,63.80
2023-02-28T08:24:56.874Z,61.72
2023-02-28T08:27:32.949Z,58.36
2023-02-28T08:30:04.232Z,56.57
2023-02-28T08:32:36.049Z,58.08
2023-02-28T08:35:08.080Z,58.97
2023-02-28T08:37:39.079Z,60.11
2023-02-28T08:40:11.255Z,61.01
2023-02-28T08:42:42.410Z,60.97
2023-02-28T08:45:16.749Z,60.95
2023-02-28T08:47:47.724Z,61.39
2023-02-28T08:50:18.766Z,60.91
2023-02-28T08:52:49.706Z,59.72
2023-02-28T08:55:20.781Z,60.23
2023-02-28T08:57:51.919Z,58.90
2023-02-28T09:00:23.986Z,58.95
2023-02-28T09:02:56.017Z,58.93
2023-02-28T09:05:27.162Z,56.93
2023-02-28T09:07:57.984Z,55.20
2023-02-28T09:10:28.877Z,55.05
2023-02-28T09:12:59.598Z,55.72
2023-02-28T09:15:32.067Z,54.96
2023-02-28T09:18:02.776Z,55.13
2023-02-28T09:20:33.632Z,54.44
2023-02-28T09:23:04.586Z,53.88
2023-02-28T09:25:35.657Z,54.06
2023-02-28T09:28:07.064Z,53.16
2023-02-28T09:30:38.069Z,52.74
2023-02-28T09:33:08.699Z,52.62
2023-02-28T09:35:39.747Z,53.23
2023-02-28T09:38:11.318Z,52.54
2023-02-28T09:40:43.768Z,52.79
2023-02-28T09:43:16.918Z,52.46
2023-02-28T09:45:50.315Z,51.62
2023-02-28T09:48:24.414Z,52.84
2023-02-28T09:51:00.101Z,53.62
2023-02-28T09:53:35.124Z,53.64
2023-02-28T09:56:09.259Z,53.89
2023-02-28T09:58:44.494Z,53.31
2023-02-28T10:01:22.093Z,53.37
2023-02-28T10:03:58.302Z,53.04
2023-02-28T10:06:37.108Z,53.28
2023-02-28T10:09:11.781Z,53.18
2023-02-28T10:11:44.079Z,53.69
2023-02-28T10:14:16.761Z,53.17
2023-02-28T10:16:53.176Z,52.41
2023-02-28T10:19:26.583Z,52.49
2023-02-28T10:21:59.145Z,52.70
2023-02-28T10:24:33.131Z,52.05
2023-02-28T10:27:08.558Z,52.80
2023-02-28T10:29:42.018Z,52.79
2023-02-28T10:32:11.077Z,52.24
2023-02-28T10:34:42.184Z,51.80
2023-02-28T10:37:13.970Z,52.03
2023-02-28T10:39:46.946Z,51.55
2023-02-28T10:42:28.240Z,51.38
2023-02-28T10:45:12.857Z,51.90
2023-02-28T10:47:53.901Z,52.52
2023-02-28T10:50:44.737Z,52.07
2023-02-28T10:53:31.934Z,52.47
2023-02-28T10:56:04.989Z,52.67
2023-02-28T10:58:48.894Z,52.78
2023-02-28T11:01:21.748Z,53.00
2023-02-28T11:03:53.763Z,53.44
2023-02-28T11:06:25.953Z,52.09
2023-02-28T11:08:57.816Z,51.93
2023-02-28T11:11:30.732Z,52.30
2023-02-28T11:14:08.302Z,52.72
2023-02-28T11:16:39.880Z,53.45
2023-02-28T11:19:20.182Z,53.60
2023-02-28T11:21:54.848Z,53.29
2023-02-28T11:24:27.328Z,53.03
2023-02-28T11:26:58.938Z,52.43
2023-02-28T11:29:31.922Z,52.94
2023-02-28T11:32:07.599Z,52.11
2023-02-28T11:34:39.133Z,52.16
2023-02-28T11:37:13.806Z,53.02
2023-02-28T11:39:45.111Z,53.26
2023-02-28T11:42:21.462Z,52.39
2023-02-28T11:45:01.406Z,52.77
2023-02-28T11:47:35.443Z,53.06
2023-02-28T11:50:14.130Z,52.98
2023-02-28T11:52:48.007Z,53.14
2023-02-28T11:55:22.161Z,53.30
2023-02-28T11:58:09.507Z,52.31
2023-02-28T12:00:49.705Z,52.17
2023-02-28T12:03:26.183Z,51.67
2023-02-28T12:06:03.210Z,51.29
2023-02-28T12:08:41.778Z,52.09
2023-02-28T12:11:19.566Z,52.65
2023-02-28T12:13:52.891Z,52.17
2023-02-28T12:16:48.175Z,51.65
2023-02-28T12:19:26.407Z,52.20
2023-02-28T12:22:22.250Z,51.97
2023-02-28T12:25:04.276Z,52.32
2023-02-28T12:27:36.638Z,51.84
2023-02-28T12:30:16.233Z,51.75
2023-02-28T12:32:48.841Z,51.59
2023-02-28T12:35:21.951Z,51.89
2023-02-28T12:37:57.418Z,52.49
2023-02-28T12:40:30.632Z,51.90
2023-02-28T12:43:02.994Z,52.02
2023-02-28T12:45:42.043Z,53.03
2023-02-28T12:48:16.215Z,53.15
2023-02-28T12:50:51.828Z,52.25
2023-02-28T12:53:27.946Z,52.65
2023-02-28T12:56:05.565Z,52.83
2023-02-28T12:58:38.599Z,52.83
2023-02-28T13:01:16.978Z,52.97
2023-02-28T13:04:04.237Z,51.59
2023-02-28T13:06:57.796Z,52.41
2023-02-28T13:09:30.747Z,52.77
2023-02-28T13:12:01.453Z,52.12
2023-02-28T13:14:37.787Z,50.83
2023-02-28T13:17:14.348Z,51.69
2023-02-28T13:19:46.225Z,52.15
2023-02-28T13:22:21.357Z,52.60
2023-02-28T13:24:55.366Z,52.51
2023-02-28T13:27:36.271Z,52.94
2023-02-28T13:30:20.643Z,53.20
2023-02-28T13:33:11.896Z,53.56
2023-02-28T13:35:49.669Z,52.68
2023-02-28T13:38:33.762Z,49.47
2023-02-28T13:41:27.176Z,46.65
2023-02-28T13:44:05.821Z,44.56
2023-02-28T13:46:38.550Z,43.63
2023-02-28T13:49:29.203Z,40.77
2023-02-28T13:52:15.412Z,40.09
2023-02-28T13:54:53.768Z,38.64
2023-02-28T13:57:27.951Z,38.28
2023-02-28T14:00:06.611Z,38.84
2023-02-28T14:02:40.866Z,39.29
2023-02-28T14:07:52.841Z,35.20
2023-02-28T14:10:31.468Z,34.25
2023-02-28T14:13:03.977Z,36.47
2023-02-28T14:15:47.952Z,35.18
2023-02-28T14:18:22.082Z,35.68
2023-02-28T14:20:55.828Z,35.75
2023-02-28T14:23:36.511Z,36.71
2023-02-28T14:26:15.062Z,36.40
2023-02-28T14:28:52.330Z,35.82
2023-02-28T14:31:27.648Z,36.66
2023-02-28T14:34:16.153Z,37.65
2023-02-28T14:36:47.338Z,37.77
2023-02-28T14:39:19.604Z,38.10
2023-02-28T14:41:51.057Z,35.42
2023-02-28T14:44:22.797Z,36.46
2023-02-28T14:46:55.945Z,37.24
2023-02-28T14:49:29.913Z,37.06
2023-02-28T14:52:10.661Z,36.64
2023-02-28T14:54:41.937Z,37.37
2023-02-28T14:57:24.030Z,37.05
2023-02-28T15:00:01.646Z,36.37
2023-02-28T15:02:33.954Z,36.05
2023-02-28T15:05:14.000Z,36.79
2023-02-28T15:07:45.132Z,36.58
2023-02-28T15:10:20.001Z,36.48
2023-02-28T15:12:54.962Z,35.97
2023-02-28T15:15:35.921Z,37.27
2023-02-28T15:18:16.699Z,37.65
2023-02-28T15:20:48.133Z,37.74
2023-02-28T15:23:19.630Z,38.31
2023-02-28T15:25:51.001Z,39.08
2023-02-28T15:28:22.863Z,39.55
2023-02-28T15:30:55.673Z,39.13
2023-02-28T15:33:27.677Z,39.30
2023-02-28T15:36:15.776Z,40.06
2023-02-28T15:38:46.510Z,40.67
2023-02-28T15:41:27.196Z,40.90
2023-02-28T15:44:15.627Z,41.38
2023-02-28T15:46:55.679Z,41.86
2023-02-28T15:49:26.538Z,42.53
2023-02-28T15:51:58.796Z,43.32
2023-02-28T15:54:31.384Z,43.56
2023-02-28T15:57:05.573Z,44.17
2023-02-28T15:59:37.638Z,44.23
2023-02-28T16:02:16.931Z,45.31
2023-02-28T16:05:01.662Z,46.22
2023-02-28T16:07:37.476Z,46.91
2023-02-28T16:10:09.352Z,47.71
2023-02-28T16:12:41.292Z,48.78
2023-02-28T16:15:20.077Z,49.23
2023-02-28T16:17:50.906Z,50.36
2023-02-28T16:20:22.634Z,50.34
2023-02-28T16:22:53.527Z,50.88
2023-02-28T16:25:25.914Z,51.85
2023-02-28T16:27:58.705Z,51.95
2023-02-28T16:30:32.585Z,52.24
2023-02-28T16:33:03.319Z,53.53
2023-02-28T16:35:34.401Z,53.48
2023-02-28T16:38:05.239Z,53.89
2023-02-28T16:40:37.807Z,53.87
2023-02-28T16:43:10.710Z,54.36
2023-02-28T16:45:42.531Z,54.42
2023-02-28T16:48:16.180Z,54.42
2023-02-28T16:50:47.225Z,55.08
2023-02-28T16:53:18.352Z,55.06
2023-02-28T16:55:49.535Z,55.29
2023-02-28T16:58:22.994Z,55.42
2023-02-28T17:00:54.223Z,57.15
2023-02-28T17:03:33.868Z,56.14
2023-02-28T17:06:05.017Z,56.00
2023-02-28T17:08:38.141Z,55.97
2023-02-28T17:11:08.902Z,56.95
2023-02-28T17:13:42.479Z,56.70
2023-02-28T17:16:15.829Z,56.95
2023-02-28T17:18:47.068Z,56.99
2023-02-28T17:21:17.966Z,57.29
2023-02-28T17:23:49.149Z,57.58
2023-02-28T17:26:22.298Z,57.60
2023-02-28T17:28:52.756Z,57.83
2023-02-28T17:31:23.508Z,57.70
2023-02-28T17:33:55.670Z,58.54
2023-02-28T17:36:29.030Z,58.55
2023-02-28T17:39:00.403Z,58.44
2023-02-28T17:41:31.550Z,58.09
2023-02-28T17:44:02.696Z,58.27
2023-02-28T17:46:33.948Z,58.75
2023-02-28T17:49:05.188Z,58.92
2023-02-28T17:51:35.922Z,58.90
2023-02-28T17:54:07.808Z,58.86
2023-02-28T17:56:38.637Z,59.12
2023-02-28T17:59:11.648Z,59.03
2023-02-28T18:01:42.934Z,59.28
2023-02-28T18:04:13.994Z,59.11
2023-02-28T18:06:51.128Z,59.24
2023-02-28T18:09:23.265Z,59.36
2023-02-28T18:11:55.913Z,59.84
2023-02-28T18:14:27.563Z,60.15
2023-02-28T18:16:58.835Z,60.07
2023-02-28T18:19:29.797Z,60.06
2023-02-28T18:22:00.928Z,60.09
2023-02-28T18:24:32.044Z,60.74
2023-02-28T18:27:02.874Z,60.80
2023-02-28T18:29:34.538Z,60.93
2023-02-28T18:32:06.272Z,60.57
2023-02-28T18:34:37.294Z,60.69
2023-02-28T18:37:08.116Z,60.76
2023-02-28T18:39:38.734Z,60.96
2023-02-28T18:42:10.269Z,61.26
2023-02-28T18:44:45.929Z,61.15
2023-02-28T18:47:17.038Z,61.27
2023-02-28T18:49:48.277Z,61.50
2023-02-28T18:52:19.511Z,61.49
2023-02-28T18:54:50.560Z,61.43
2023-02-28T18:57:21.803Z,61.60
2023-02-28T18:59:52.806Z,61.78
2023-02-28T19:02:23.896Z,63.68
2023-02-28T19:04:55.099Z,70.86
2023-02-28T19:07:26.007Z,69.63
2023-02-28T19:09:56.850Z,64.62
2023-02-28T19:12:28.254Z,60.81
2023-02-28T19:14:59.228Z,54.46
2023-02-28T19:17:30.385Z,53.58
2023-02-28T19:20:05.618Z,55.02
2023-02-28T19:22:41.531Z,56.32
2023-02-28T19:25:17.777Z,58.19
2023-02-28T19:27:49.328Z,59.15
2023-02-28T19:30:20.746Z,59.46
2023-02-28T19:32:52.181Z,60.79
2023-02-28T19:35:23.463Z,60.97
2023-02-28T19:37:59.973Z,67.79
2023-02-28T19:40:30.992Z,67.36
2023-02-28T19:43:04.234Z,63.64
2023-02-28T19:45:37.091Z,60.05
2023-02-28T19:48:10.263Z,55.33
2023-02-28T19:50:42.275Z,54.58
2023-02-28T19:53:13.257Z,56.74
2023-02-28T19:55:44.297Z,59.19
2023-02-28T19:58:15.378Z,60.08
2023-02-28T20:00:46.081Z,61.70
2023-02-28T20:03:18.802Z,66.28
2023-02-28T20:05:49.820Z,63.72
2023-02-28T20:08:20.729Z,59.26
2023-02-28T20:10:51.794Z,54.83
2023-02-28T20:13:28.110Z,56.61
2023-02-28T20:16:01.870Z,59.75
2023-02-28T20:18:37.144Z,60.70
2023-02-28T20:21:14.062Z,62.78
2023-02-28T20:23:50.488Z,63.96
2023-02-28T20:26:25.971Z,64.95
2023-02-28T20:29:00.802Z,60.98
2023-02-28T20:31:37.187Z,56.05
2023-02-28T20:34:08.797Z,55.39
2023-02-28T20:36:39.855Z,56.67
2023-02-28T20:39:11.450Z,58.65
2023-02-28T20:41:42.350Z,60.14
2023-02-28T20:44:14.898Z,61.98
2023-02-28T20:46:49.872Z,66.89
2023-02-28T20:49:21.146Z,67.38
2023-02-28T20:51:51.836Z,61.51
2023-02-28T20:54:22.841Z,57.36
2023-02-28T20:56:53.310Z,57.31
2023-02-28T20:59:29.560Z,59.61
2023-02-28T21:02:00.610Z,61.63
2023-02-28T21:04:36.966Z,65.81
2023-02-28T21:07:12.280Z,66.94
2023-02-28T21:09:43.454Z,63.61
2023-02-28T21:12:14.493Z,60.11
2023-02-28T21:14:49.729Z,56.08
2023-02-28T21:17:21.225Z,55.77
2023-02-28T21:19:51.928Z,57.32
2023-02-28T21:22:22.971Z,58.34
2023-02-28T21:24:53.692Z,60.26
2023-02-28T21:27:24.832Z,60.57
2023-02-28T21:29:55.633Z,63.66
2023-02-28T21:32:27.099Z,68.62
2023-02-28T21:34:58.744Z,65.99
2023-02-28T21:37:30.362Z,60.43
2023-02-28T21:40:01.061Z,56.19
2023-02-28T21:42:32.667Z,55.93
2023-02-28T21:45:03.699Z,57.73
2023-02-28T21:47:35.130Z,59.05
2023-02-28T21:50:07.289Z,60.51
2023-02-28T21:52:38.603Z,61.22
2023-02-28T21:55:10.287Z,66.58
2023-02-28T21:57:41.570Z,69.29
2023-02-28T22:00:17.015Z,64.41
2023-02-28T22:02:48.528Z,60.49
2023-02-28T22:05:19.831Z,56.72
2023-02-28T22:07:50.876Z,55.89
2023-02-28T22:10:21.753Z,57.61
2023-02-28T22:12:52.868Z,59.61
2023-02-28T22:15:24.313Z,60.97
2023-02-28T22:17:55.255Z,61.92
2023-02-28T22:20:25.773Z,66.13
2023-02-28T22:22:56.745Z,68.40
2023-02-28T22:25:27.877Z,64.22
2023-02-28T22:27:58.992Z,61.27
2023-02-28T22:30:29.755Z,56.96
2023-02-28T22:33:00.652Z,56.19
2023-02-28T22:35:31.396Z,57.87
2023-02-28T22:38:02.190Z,59.03
2023-02-28T22:40:34.284Z,60.57
2023-02-28T22:43:06.844Z,66.09
2023-02-28T22:45:38.461Z,66.88
2023-02-28T22:48:11.430Z,62.38
2023-02-28T22:50:42.024Z,58.36
2023-02-28T22:53:12.802Z,58.30
2023-02-28T22:55:43.334Z,60.10
2023-02-28T22:58:14.199Z,62.31
2023-02-28T23:00:44.835Z,67.88
2023-02-28T23:03:16.351Z,69.60
2023-02-28T23:05:47.030Z,66.12
2023-02-28T23:08:22.613Z,61.42
2023-02-28T23:10:53.550Z,57.34
2023-02-28T23:13:24.799Z,57.19
2023-02-28T23:15:55.635Z,58.79
2023-02-28T23:18:26.492Z,61.07
2023-02-28T23:20:58.752Z,61.64
2023-02-28T23:23:29.678Z,67.33
2023-02-28T23:26:00.388Z,69.11
2023-02-28T23:28:31.802Z,65.36
2023-02-28T23:31:04.716Z,61.21
2023-02-28T23:33:35.753Z,57.21
2023-02-28T23:36:11.554Z,57.42
2023-02-28T23:38:43.395Z,58.92
2023-02-28T23:41:14.624Z,60.73
2023-02-28T23:43:45.775Z,66.33
2023-02-28T23:46:17.872Z,67.81
2023-02-28T23:48:48.645Z,63.73
2023-02-28T23:51:20.631Z,60.82
2023-02-28T23:53:52.563Z,57.88
2023-02-28T23:56:23.979Z,56.85
2023-02-28T23:58:56.003Z,58.37
